Time,TemperatureF,DewpointF,PressureIn,WindDirection,WindDirectionDegrees,WindSpeedMPH,WindSpeedGustMPH,Humidity,HourlyPrecipIn,Conditions,Clouds,dailyrainin,SoftwareType,DateUTC
2014-01-30 00:03:00,10.0,-0.4,30.15,West,270,3.2,-999.0,62,-99.99,,,0.00,Acu-Link.com,2014-01-30 05:03:00,
2014-01-30 00:19:00,9.7,-0.7,30.15,West,270,2.2,-999.0,62,-99.99,,,0.00,Acu-Link.com,2014-01-30 05:19:00,
2014-01-30 00:34:00,9.7,-0.3,30.15,West,270,3.2,-999.0,63,-99.99,,,0.00,Acu-Link.com,2014-01-30 05:34:00,
2014-01-30 00:49:00,9.9,-0.1,30.15,WNW,292,3.7,-999.0,63,-99.99,,,0.00,Acu-Link.com,2014-01-30 05:49:00,
2014-01-30 01:04:00,10.2,-0.2,30.14,West,270,2.7,-999.0,62,-99.99,,,0.00,Acu-Link.com,2014-01-30 06:04:00,
2014-01-30 01:19:00,9.1,-0.2,30.16,West,270,2.7,-999.0,65,-99.99,,,0.00,Acu-Link.com,2014-01-30 06:19:00,
2014-01-30 01:34:00,9.5,-0.2,30.14,West,270,6.3,-999.0,64,-99.99,,,0.00,Acu-Link.com,2014-01-30 06:34:00,
2014-01-30 01:49:00,9.9,-0.5,30.15,WNW,292,5.3,-999.0,62,-99.99,,,0.00,Acu-Link.com,2014-01-30 06:49:00,
2014-01-30 02:05:00,8.6,-1.0,30.14,West,270,3.7,-999.0,64,-99.99,,,0.00,Acu-Link.com,2014-01-30 07:05:00,
2014-01-30 02:20:00,9.5,-0.5,30.15,WNW,292,2.7,-999.0,63,-99.99,,,0.00,Acu-Link.com,2014-01-30 07:20:00,
2014-01-30 02:35:00,9.3,-0.7,30.17,WNW,292,3.7,-999.0,63,-99.99,,,0.00,Acu-Link.com,2014-01-30 07:35:00,
2014-01-30 02:50:00,8.4,-0.9,30.18,West,270,1.7,-999.0,65,-99.99,,,0.00,Acu-Link.com,2014-01-30 07:50:00,
2014-01-30 03:05:00,7.5,-1.4,30.18,West,270,1.7,-999.0,66,-99.99,,,0.00,Acu-Link.com,2014-01-30 08:05:00,
2014-01-30 03:20:00,3.9,-2.5,30.18,WNW,292,1.1,-999.0,74,-99.99,,,0.00,Acu-Link.com,2014-01-30 08:20:00,
2014-01-30 03:35:00,5.2,-1.5,30.19,West,270,0.0,-999.0,73,-99.99,,,0.00,Acu-Link.com,2014-01-30 08:35:00,
2014-01-30 03:50:00,4.3,-1.6,30.19,WNW,292,2.2,-999.0,76,-99.99,,,0.00,Acu-Link.com,2014-01-30 08:50:00,
2014-01-30 04:06:00,5.9,-0.9,30.20,WNW,292,3.7,-999.0,73,-99.99,,,0.00,Acu-Link.com,2014-01-30 09:06:00,
2014-01-30 04:21:00,5.4,-1.3,30.20,West,270,2.7,-999.0,73,-99.99,,,0.00,Acu-Link.com,2014-01-30 09:21:00,
2014-01-30 04:36:00,5.0,-1.2,30.22,West,270,2.2,-999.0,75,-99.99,,,0.00,Acu-Link.com,2014-01-30 09:36:00,
2014-01-30 04:51:00,4.3,-1.8,30.23,West,270,2.2,-999.0,75,-99.99,,,0.00,Acu-Link.com,2014-01-30 09:51:00,
2014-01-30 05:06:00,3.6,-2.0,30.24,West,270,1.1,-999.0,77,-99.99,,,0.00,Acu-Link.com,2014-01-30 10:06:00,
2014-01-30 05:21:00,3.6,-0.6,30.25,SSW,202,0.0,-999.0,82,-99.99,,,0.00,Acu-Link.com,2014-01-30 10:21:00,
2014-01-30 05:36:00,3.0,-0.5,30.26,East,90,2.7,-999.0,85,-99.99,,,0.00,Acu-Link.com,2014-01-30 10:36:00,
2014-01-30 05:51:00,2.7,-0.5,30.26,East,90,0.0,-999.0,86,-99.99,,,0.00,Acu-Link.com,2014-01-30 10:51:00,
2014-01-30 06:06:00,2.7,-0.3,30.27,East,90,0.0,-999.0,87,-99.99,,,0.00,Acu-Link.com,2014-01-30 11:06:00,
2014-01-30 06:21:00,3.0,0.0,30.28,East,90,0.0,-999.0,87,-99.99,,,0.00,Acu-Link.com,2014-01-30 11:21:00,
2014-01-30 06:37:00,1.2,-1.7,30.28,East,90,0.0,-999.0,87,-99.99,,,0.00,Acu-Link.com,2014-01-30 11:37:00,
2014-01-30 06:52:00,0.3,-2.6,30.29,East,90,0.0,-999.0,87,-99.99,,,0.00,Acu-Link.com,2014-01-30 11:52:00,
2014-01-30 07:07:00,0.1,-2.6,30.30,ESE,112,0.0,-999.0,88,-99.99,,,0.00,Acu-Link.com,2014-01-30 12:07:00,
2014-01-30 07:22:00,1.9,-0.6,30.30,East,90,1.7,-999.0,89,-99.99,,,0.00,Acu-Link.com,2014-01-30 12:22:00,
2014-01-30 07:37:00,0.5,-2.0,30.30,East,90,0.0,-999.0,89,-99.99,,,0.00,Acu-Link.com,2014-01-30 12:37:00,
2014-01-30 07:52:00,-0.4,-3.1,30.31,West,270,0.0,-999.0,88,-99.99,,,0.00,Acu-Link.com,2014-01-30 12:52:00,
2014-01-30 08:07:00,1.0,-1.5,30.32,SE,135,1.1,-999.0,89,-99.99,,,0.00,Acu-Link.com,2014-01-30 13:07:00,
2014-01-30 08:22:00,3.4,0.7,30.32,South,180,0.0,-999.0,88,-99.99,,,0.00,Acu-Link.com,2014-01-30 13:22:00,
2014-01-30 08:37:00,5.2,1.4,30.32,SE,135,2.7,-999.0,84,-99.99,,,0.00,Acu-Link.com,2014-01-30 13:37:00,
2014-01-30 08:53:00,5.9,1.6,30.32,SSE,157,3.2,-999.0,82,-99.99,,,0.00,Acu-Link.com,2014-01-30 13:53:00,
2014-01-30 09:08:00,7.3,2.5,30.32,ESE,112,2.7,-999.0,80,-99.99,,,0.00,Acu-Link.com,2014-01-30 14:08:00,
2014-01-30 09:23:00,8.2,3.3,30.33,ESE,112,2.7,-999.0,80,-99.99,,,0.00,Acu-Link.com,2014-01-30 14:23:00,
2014-01-30 09:38:00,8.2,2.5,30.33,SSE,157,2.2,-999.0,77,-99.99,,,0.00,Acu-Link.com,2014-01-30 14:38:00,
2014-01-30 09:53:00,9.7,2.8,30.34,SSE,157,3.7,-999.0,73,-99.99,,,0.00,Acu-Link.com,2014-01-30 14:53:00,
2014-01-30 10:08:00,10.9,3.4,30.33,SSE,157,3.7,-999.0,71,-99.99,,,0.00,Acu-Link.com,2014-01-30 15:08:00,
2014-01-30 10:23:00,13.3,4.7,30.33,SSE,157,1.7,-999.0,68,-99.99,,,0.00,Acu-Link.com,2014-01-30 15:23:00,
2014-01-30 10:39:00,13.6,4.4,30.33,SSE,157,2.7,-999.0,66,-99.99,,,0.00,Acu-Link.com,2014-01-30 15:39:00,
2014-01-30 10:54:00,14.2,4.3,30.31,ESE,112,2.7,-999.0,64,-99.99,,,0.00,Acu-Link.com,2014-01-30 15:54:00,
2014-01-30 11:09:00,16.3,5.2,30.30,SE,135,5.3,-999.0,61,-99.99,,,0.00,Acu-Link.com,2014-01-30 16:09:00,
2014-01-30 11:24:00,17.2,5.0,30.29,WNW,292,2.2,-999.0,58,-99.99,,,0.00,Acu-Link.com,2014-01-30 16:24:00,
2014-01-30 11:39:00,20.3,6.7,30.26,SSW,202,1.7,-999.0,55,-99.99,,,0.00,Acu-Link.com,2014-01-30 16:39:00,
2014-01-30 12:07:00,21.6,6.7,30.26,SE,135,3.2,-999.0,52,-99.99,,,0.00,Acu-Link.com,2014-01-30 17:07:00,
2014-01-30 12:22:00,23.7,6.9,30.17,SSE,157,2.7,-999.0,48,-99.99,,,0.00,Acu-Link.com,2014-01-30 17:22:00,
2014-01-30 12:37:00,24.1,7.3,30.13,SSE,157,1.7,-999.0,48,-99.99,,,0.00,Acu-Link.com,2014-01-30 17:37:00,
2014-01-30 12:52:00,24.8,6.5,30.09,SW,225,1.7,-999.0,45,-99.99,,,0.00,Acu-Link.com,2014-01-30 17:52:00,
2014-01-30 13:07:00,25.7,4.8,30.06,South,180,1.1,-999.0,40,-99.99,,,0.00,Acu-Link.com,2014-01-30 18:07:00,
2014-01-30 13:22:00,26.4,4.3,30.04,ESE,112,1.1,-999.0,38,-99.99,,,0.00,Acu-Link.com,2014-01-30 18:22:00,
2014-01-30 13:38:00,27.9,5.6,30.01,South,180,0.0,-999.0,38,-99.99,,,0.00,Acu-Link.com,2014-01-30 18:38:00,
2014-01-30 13:53:00,32.4,4.5,30.01,ESE,112,3.2,-999.0,30,-99.99,,,0.00,Acu-Link.com,2014-01-30 18:53:00,
2014-01-30 14:08:00,29.3,3.8,29.99,WSW,247,2.2,-999.0,33,-99.99,,,0.00,Acu-Link.com,2014-01-30 19:08:00,
2014-01-30 14:23:00,27.5,4.1,29.94,NE,45,1.1,-999.0,36,-99.99,,,0.00,Acu-Link.com,2014-01-30 19:23:00,
2014-01-30 14:38:00,28.0,3.9,29.93,NNE,22,2.2,-999.0,35,-99.99,,,0.00,Acu-Link.com,2014-01-30 19:38:00,
2014-01-30 14:53:00,29.8,4.2,29.91,SE,135,3.7,-999.0,33,-99.99,,,0.00,Acu-Link.com,2014-01-30 19:53:00,
2014-01-30 15:08:00,29.8,4.2,29.90,ENE,67,3.7,-999.0,33,-99.99,,,0.00,Acu-Link.com,2014-01-30 20:08:00,
2014-01-30 15:24:00,30.0,3.8,29.88,WSW,247,6.3,-999.0,32,-99.99,,,0.00,Acu-Link.com,2014-01-30 20:24:00,
2014-01-30 15:39:00,30.6,4.3,29.90,West,270,1.7,-999.0,32,-99.99,,,0.00,Acu-Link.com,2014-01-30 20:39:00,
2014-01-30 15:54:00,29.8,2.9,29.89,SSE,157,5.8,-999.0,31,-99.99,,,0.00,Acu-Link.com,2014-01-30 20:54:00,
2014-01-30 16:09:00,29.7,4.2,29.88,SSW,202,9.4,-999.0,33,-99.99,,,0.00,Acu-Link.com,2014-01-30 21:09:00,
2014-01-30 16:24:00,28.9,3.5,29.87,South,180,3.2,-999.0,33,-99.99,,,0.00,Acu-Link.com,2014-01-30 21:24:00,
2014-01-30 16:39:00,28.8,4.0,29.86,SSW,202,4.2,-999.0,34,-99.99,,,0.00,Acu-Link.com,2014-01-30 21:39:00,
2014-01-30 16:54:00,28.2,3.5,29.85,SW,225,3.2,-999.0,34,-99.99,,,0.00,Acu-Link.com,2014-01-30 21:54:00,
2014-01-30 17:09:00,27.7,3.0,29.84,SE,135,2.2,-999.0,34,-99.99,,,0.00,Acu-Link.com,2014-01-30 22:09:00,
2014-01-30 17:25:00,27.3,3.3,29.83,SSE,157,4.7,-999.0,35,-99.99,,,0.00,Acu-Link.com,2014-01-30 22:25:00,
2014-01-30 17:40:00,27.1,2.5,29.82,ESE,112,2.7,-999.0,34,-99.99,,,0.00,Acu-Link.com,2014-01-30 22:40:00,
2014-01-30 17:55:00,26.4,3.1,29.81,South,180,1.7,-999.0,36,-99.99,,,0.00,Acu-Link.com,2014-01-30 22:55:00,
2014-01-30 18:10:00,26.2,2.9,29.83,ESE,112,4.7,-999.0,36,-99.99,,,0.00,Acu-Link.com,2014-01-30 23:10:00,
2014-01-30 18:25:00,25.5,2.9,29.82,SSW,202,2.7,-999.0,37,-99.99,,,0.00,Acu-Link.com,2014-01-30 23:25:00,
2014-01-30 18:40:00,25.3,3.3,29.85,SSE,157,3.2,-999.0,38,-99.99,,,0.00,Acu-Link.com,2014-01-30 23:40:00,
2014-01-30 18:55:00,25.2,3.8,29.87,SE,135,2.7,-999.0,39,-99.99,,,0.00,Acu-Link.com,2014-01-30 23:55:00,
2014-01-30 19:10:00,24.8,3.4,29.90,SSW,202,2.2,-999.0,39,-99.99,,,0.00,Acu-Link.com,2014-01-31 00:10:00,
2014-01-30 19:25:00,23.7,4.0,29.90,ESE,112,0.0,-999.0,42,-99.99,,,0.00,Acu-Link.com,2014-01-31 00:25:00,
2014-01-30 19:40:00,23.4,3.7,29.89,SSW,202,0.0,-999.0,42,-99.99,,,0.00,Acu-Link.com,2014-01-31 00:40:00,
2014-01-30 19:56:00,23.9,4.7,29.90,SSE,157,6.8,-999.0,43,-99.99,,,0.00,Acu-Link.com,2014-01-31 00:56:00,
2014-01-30 20:11:00,24.4,4.1,29.89,South,180,4.2,-999.0,41,-99.99,,,0.00,Acu-Link.com,2014-01-31 01:11:00,
2014-01-30 20:26:00,24.4,4.1,29.89,SSE,157,6.3,-999.0,41,-99.99,,,0.00,Acu-Link.com,2014-01-31 01:26:00,
2014-01-30 20:41:00,24.6,4.3,29.89,South,180,4.2,-999.0,41,-99.99,,,0.00,Acu-Link.com,2014-01-31 01:41:00,
2014-01-30 20:56:00,24.6,4.3,29.89,SSE,157,3.2,-999.0,41,-99.99,,,0.00,Acu-Link.com,2014-01-31 01:56:00,
2014-01-30 21:11:00,24.6,4.8,29.90,SSW,202,2.7,-999.0,42,-99.99,,,0.00,Acu-Link.com,2014-01-31 02:11:00,
2014-01-30 21:27:00,24.8,4.5,29.88,SSE,157,4.2,-999.0,41,-99.99,,,0.00,Acu-Link.com,2014-01-31 02:27:00,
2014-01-30 21:42:00,24.6,4.8,29.88,SSE,157,5.3,-999.0,42,-99.99,,,0.00,Acu-Link.com,2014-01-31 02:42:00,
2014-01-30 21:57:00,24.6,4.3,29.89,WNW,292,3.2,-999.0,41,-99.99,,,0.00,Acu-Link.com,2014-01-31 02:57:00,
2014-01-30 22:12:00,25.0,4.1,29.88,SSE,157,1.1,-999.0,40,-99.99,,,0.00,Acu-Link.com,2014-01-31 03:12:00,
2014-01-30 22:27:00,24.8,5.0,29.88,NNW,337,0.0,-999.0,42,-99.99,,,0.00,Acu-Link.com,2014-01-31 03:27:00,
2014-01-30 22:42:00,24.1,5.9,29.86,West,270,0.0,-999.0,45,-99.99,,,0.00,Acu-Link.com,2014-01-31 03:42:00,
2014-01-30 22:57:00,23.9,5.7,29.86,East,90,2.2,-999.0,45,-99.99,,,0.00,Acu-Link.com,2014-01-31 03:57:00,
2014-01-30 23:12:00,24.6,4.8,29.86,West,270,1.7,-999.0,42,-99.99,,,0.00,Acu-Link.com,2014-01-31 04:12:00,
2014-01-30 23:27:00,24.3,5.6,29.86,WSW,247,1.1,-999.0,44,-99.99,,,0.00,Acu-Link.com,2014-01-31 04:27:00,
2014-01-30 23:43:00,23.7,7.4,29.86,SE,135,0.0,-999.0,49,-99.99,,,0.00,Acu-Link.com,2014-01-31 04:43:00,
2014-01-30 23:58:00,23.5,5.8,29.84,NNW,337,1.7,-999.0,46,-99.99,,,0.00,Acu-Link.com,2014-01-31 04:58:00,